Time,TemperatureF,DewpointF,PressureIn,WindDirection,WindDirectionDegrees,WindSpeedMPH,WindSpeedGustMPH,Humidity,HourlyPrecipIn,Conditions,Clouds,dailyrainin,SoftwareType,DateUTC
2013-05-07 00:02:00,60.0,43.0,-100.00,East,80,3.0,3.0,53,-99.99,,,-99.99,,2013-05-07 07:02:00,
2013-05-07 00:10:00,60.0,40.0,-100.00,NE,55,2.0,2.0,47,-99.99,,,-99.99,,2013-05-07 07:10:00,
2013-05-07 00:11:00,60.0,43.0,-100.00,East,80,3.0,3.0,53,-99.99,,,-99.99,,2013-05-07 07:11:00,
2013-05-07 01:02:00,60.0,40.0,-100.00,NE,55,2.0,2.0,47,-99.99,,,-99.99,,2013-05-07 08:02:00,
2013-05-07 02:01:00,57.0,42.0,-100.00,South,180,1.0,5.0,57,-99.99,,,-99.99,,2013-05-07 09:01:00,
2013-05-07 02:11:00,57.0,42.0,-100.00,South,180,1.0,5.0,57,-99.99,,,-99.99,,2013-05-07 09:11:00,
2013-05-07 02:20:00,54.0,41.0,-100.00,SE,135,2.0,3.0,61,-99.99,,,-99.99,,2013-05-07 09:20:00,
2013-05-07 03:02:00,54.0,41.0,-100.00,SE,135,2.0,3.0,61,-99.99,,,-99.99,,2013-05-07 10:02:00,
2013-05-07 03:12:00,54.0,41.0,-100.00,SE,135,2.0,3.0,61,-99.99,,,-99.99,,2013-05-07 10:12:00,
2013-05-07 04:02:00,53.0,42.0,-100.00,ENE,70,1.0,1.0,66,-99.99,,,-99.99,,2013-05-07 11:02:00,
2013-05-07 04:12:00,53.0,42.0,-100.00,ENE,70,1.0,1.0,66,-99.99,,,-99.99,,2013-05-07 11:12:00,
2013-05-07 05:02:00,61.0,37.0,-100.00,NE,35,3.0,5.0,40,-99.99,,,-99.99,,2013-05-07 12:02:00,
2013-05-07 05:11:00,61.0,37.0,-100.00,NE,35,3.0,5.0,40,-99.99,,,-99.99,,2013-05-07 12:11:00,
2013-05-07 06:02:00,58.0,39.0,-100.00,SE,130,2.0,3.0,49,-99.99,,,-99.99,,2013-05-07 13:02:00,
2013-05-07 06:11:00,58.0,39.0,-100.00,SE,130,2.0,3.0,49,-99.99,,,-99.99,,2013-05-07 13:11:00,
2013-05-07 07:02:00,60.0,39.0,-100.00,ENE,65,3.0,5.0,45,-99.99,,,-99.99,,2013-05-07 14:02:00,
2013-05-07 08:01:00,63.0,41.0,-100.00,East,90,5.0,6.0,44,-99.99,,,-99.99,,2013-05-07 15:01:00,
2013-05-07 11:01:00,78.0,41.0,-100.00,WNW,300,1.0,3.0,26,-99.99,,,-99.99,,2013-05-07 18:01:00,
2013-05-07 11:11:00,78.0,41.0,-100.00,WNW,300,1.0,3.0,26,-99.99,,,-99.99,,2013-05-07 18:11:00,
2013-05-07 12:02:00,82.0,42.0,-100.00,NNW,335,2.0,9.0,24,-99.99,,,-99.99,,2013-05-07 19:02:00,
2013-05-07 12:11:00,82.0,42.0,-100.00,NNW,335,2.0,9.0,24,-99.99,,,-99.99,,2013-05-07 19:11:00,
2013-05-07 13:02:00,82.0,42.0,-100.00,North,360,6.0,9.0,24,-99.99,,,-99.99,,2013-05-07 20:02:00,
2013-05-07 13:11:00,82.0,42.0,-100.00,North,360,6.0,9.0,24,-99.99,,,-99.99,,2013-05-07 20:11:00,
2013-05-07 14:01:00,83.0,44.0,-100.00,East,90,7.0,10.0,25,-99.99,,,-99.99,,2013-05-07 21:01:00,
2013-05-07 14:10:00,84.0,43.0,-100.00,ESE,105,6.0,9.0,23,-99.99,,,-99.99,,2013-05-07 21:10:00,
2013-05-07 14:11:00,83.0,44.0,-100.00,East,90,7.0,10.0,25,-99.99,,,-99.99,,2013-05-07 21:11:00,
2013-05-07 15:02:00,84.0,43.0,-100.00,ESE,105,6.0,9.0,23,-99.99,,,-99.99,,2013-05-07 22:02:00,
2013-05-07 16:02:00,86.0,38.0,-100.00,NE,35,5.0,7.0,18,-99.99,,,-99.99,,2013-05-07 23:02:00,
2013-05-07 16:12:00,86.0,38.0,-100.00,NE,35,5.0,7.0,18,-99.99,,,-99.99,,2013-05-07 23:12:00,
2013-05-07 16:20:00,86.0,36.0,-100.00,ESE,110,3.0,7.0,16,-99.99,,,-99.99,,2013-05-07 23:20:00,
2013-05-07 17:01:00,86.0,36.0,-100.00,ESE,110,3.0,7.0,16,-99.99,,,-99.99,,2013-05-08 00:01:00,
2013-05-07 17:11:00,86.0,36.0,-100.00,ESE,110,3.0,7.0,16,-99.99,,,-99.99,,2013-05-08 00:11:00,
2013-05-07 18:02:00,87.0,39.0,-100.00,East,95,2.0,7.0,18,-99.99,,,-99.99,,2013-05-08 01:02:00,
2013-05-07 18:11:00,87.0,39.0,-100.00,East,95,2.0,7.0,18,-99.99,,,-99.99,,2013-05-08 01:11:00,
2013-05-07 19:01:00,85.0,39.0,-100.00,ESE,110,3.0,5.0,19,-99.99,,,-99.99,,2013-05-08 02:01:00,
2013-05-07 19:12:00,85.0,39.0,-100.00,ESE,110,3.0,5.0,19,-99.99,,,-99.99,,2013-05-08 02:12:00,
2013-05-07 20:01:00,82.0,46.0,-100.00,East,100,5.0,7.0,28,-99.99,,,-99.99,,2013-05-08 03:01:00,
2013-05-07 20:11:00,82.0,46.0,-100.00,East,100,5.0,7.0,28,-99.99,,,-99.99,,2013-05-08 03:11:00,
2013-05-07 21:02:00,67.0,48.0,-100.00,SE,145,6.0,7.0,50,-99.99,,,-99.99,,2013-05-08 04:02:00,
2013-05-07 21:10:00,67.0,44.0,-100.00,South,180,13.0,14.0,43,-99.99,,,-99.99,,2013-05-08 04:10:00,
2013-05-07 22:02:00,67.0,44.0,-100.00,South,180,13.0,14.0,43,-99.99,,,-99.99,,2013-05-08 05:02:00,
2013-05-07 23:01:00,70.0,42.0,-100.00,SW,225,6.0,6.0,36,-99.99,,,-99.99,,2013-05-08 06:01:00,
2013-05-07 23:12:00,70.0,42.0,-100.00,SW,225,6.0,6.0,36,-99.99,,,-99.99,,2013-05-08 06:12:00,
2013-05-07 23:20:00,62.0,47.0,-100.00,SW,215,0.0,3.0,57,-99.99,,,-99.99,,2013-05-08 06:20:00,